createdAt,value
2023-01-23T00:00:49.169Z,5.03
2023-01-23T00:03:18.605Z,5.40
2023-01-23T00:05:46.367Z,6.77
2023-01-23T00:08:14.462Z,5.00
2023-01-23T00:10:41.918Z,5.50
2023-01-23T00:13:09.406Z,5.60
2023-01-23T00:15:40.157Z,5.70
2023-01-23T00:18:07.661Z,5.30
2023-01-23T00:20:38.229Z,6.17
2023-01-23T00:23:05.951Z,4.37
2023-01-23T00:25:34.222Z,6.53
2023-01-23T00:28:02.112Z,4.53
2023-01-23T00:30:29.655Z,6.33
2023-01-23T00:32:57.220Z,5.83
2023-01-23T00:35:27.080Z,8.30
2023-01-23T00:37:57.829Z,6.80
2023-01-23T00:40:25.320Z,6.40
2023-01-23T00:42:52.823Z,5.10
2023-01-23T00:45:20.625Z,5.70
2023-01-23T00:47:48.179Z,6.10
2023-01-23T00:50:18.324Z,5.57
2023-01-23T00:52:46.049Z,5.37
2023-01-23T00:55:15.029Z,6.10
2023-01-23T00:57:42.493Z,5.87
2023-01-23T01:00:11.389Z,5.30
2023-01-23T01:02:39.221Z,5.67
2023-01-23T01:05:07.652Z,5.37
2023-01-23T01:07:35.361Z,5.03
2023-01-23T01:10:03.204Z,6.10
2023-01-23T01:12:32.026Z,5.57
2023-01-23T01:14:59.494Z,5.80
2023-01-23T01:17:27.099Z,6.50
2023-01-23T01:19:54.621Z,7.30
2023-01-23T01:22:22.393Z,5.93
2023-01-23T01:24:49.882Z,5.90
2023-01-23T01:27:17.340Z,6.23
2023-01-23T01:29:46.215Z,6.87
2023-01-23T01:32:13.731Z,6.20
2023-01-23T01:34:41.198Z,6.40
2023-01-23T01:37:09.887Z,6.83
2023-01-23T01:39:37.378Z,5.53
2023-01-23T01:42:05.119Z,6.90
2023-01-23T01:44:55.026Z,5.93
2023-01-23T01:47:22.665Z,6.27
2023-01-23T01:49:53.387Z,6.27
2023-01-23T01:52:23.032Z,5.20
2023-01-23T01:54:54.263Z,6.47
2023-01-23T01:57:26.191Z,6.90
2023-01-23T01:59:59.412Z,5.70
2023-01-23T02:02:30.068Z,5.93
2023-01-23T02:05:02.386Z,6.80
2023-01-23T02:07:35.722Z,7.20
2023-01-23T02:10:05.176Z,5.23
2023-01-23T02:12:35.240Z,5.90
2023-01-23T02:15:07.629Z,6.97
2023-01-23T02:17:38.261Z,7.20
2023-01-23T02:20:13.971Z,5.97
2023-01-23T02:22:51.019Z,5.87
2023-01-23T02:25:26.779Z,6.17
2023-01-23T02:27:55.653Z,5.60
2023-01-23T02:30:24.366Z,5.90
2023-01-23T02:32:54.599Z,6.40
2023-01-23T02:35:29.574Z,5.87
2023-01-23T02:38:07.246Z,7.00
2023-01-23T02:40:37.166Z,6.60
2023-01-23T02:43:10.606Z,6.17
2023-01-23T02:45:42.909Z,6.20
2023-01-23T02:48:10.882Z,6.43
2023-01-23T02:50:39.573Z,5.83
2023-01-23T02:53:08.511Z,5.53
2023-01-23T02:55:39.247Z,5.80
2023-01-23T02:58:22.043Z,6.93
2023-01-23T03:00:50.499Z,5.50
2023-01-23T03:03:18.734Z,6.40
2023-01-23T03:05:48.120Z,7.90
2023-01-23T03:08:15.596Z,5.70
2023-01-23T03:10:43.159Z,6.23
2023-01-23T03:13:12.096Z,5.70
2023-01-23T03:15:42.068Z,5.80
2023-01-23T03:18:09.762Z,5.70
2023-01-23T03:20:39.804Z,5.40
2023-01-23T03:23:07.334Z,7.07
2023-01-23T03:25:34.864Z,5.30
2023-01-23T03:28:03.906Z,6.27
2023-01-23T03:30:32.021Z,7.07
2023-01-23T03:32:59.651Z,6.80
2023-01-23T03:35:27.606Z,7.40
2023-01-23T03:37:56.281Z,7.00
2023-01-23T03:40:43.876Z,6.40
2023-01-23T03:43:14.925Z,6.17
2023-01-23T03:45:49.381Z,6.07
2023-01-23T03:48:16.973Z,5.90
2023-01-23T03:50:46.356Z,6.33
2023-01-23T03:53:14.161Z,7.13
2023-01-23T03:55:41.686Z,7.20
2023-01-23T03:58:09.135Z,6.40
2023-01-23T04:00:40.426Z,6.17
2023-01-23T04:03:10.077Z,6.90
2023-01-23T04:05:39.519Z,5.70
2023-01-23T04:08:07.414Z,7.00
2023-01-23T04:10:36.314Z,5.67
2023-01-23T04:13:13.886Z,6.23
2023-01-23T04:15:41.990Z,6.63
2023-01-23T04:18:11.034Z,7.70
2023-01-23T04:20:39.437Z,6.63
2023-01-23T04:23:07.093Z,5.93
2023-01-23T04:25:34.635Z,7.57
2023-01-23T04:28:04.505Z,8.23
2023-01-23T04:30:32.256Z,5.47
2023-01-23T04:33:06.003Z,7.00
2023-01-23T04:35:39.660Z,8.70
2023-01-23T04:38:07.635Z,5.90
2023-01-23T04:40:37.893Z,7.20
2023-01-23T04:43:05.434Z,6.80
2023-01-23T04:45:36.951Z,6.67
2023-01-23T04:48:20.955Z,7.87
2023-01-23T04:50:50.648Z,7.03
2023-01-23T04:53:18.227Z,5.47
2023-01-23T04:55:49.568Z,6.00
2023-01-23T04:58:19.277Z,6.83
2023-01-23T05:00:46.942Z,7.63
2023-01-23T05:03:15.957Z,7.80
2023-01-23T05:05:49.427Z,7.77
2023-01-23T05:08:18.219Z,7.40
2023-01-23T05:10:52.678Z,6.37
2023-01-23T05:13:21.363Z,8.43
2023-01-23T05:15:48.876Z,6.27
2023-01-23T05:18:17.573Z,7.67
2023-01-23T05:20:45.570Z,7.10
2023-01-23T05:23:13.447Z,5.87
2023-01-23T05:25:49.233Z,6.53
2023-01-23T05:28:16.988Z,6.77
2023-01-23T05:30:49.149Z,7.33
2023-01-23T05:33:23.084Z,7.77
2023-01-23T05:35:50.990Z,6.63
2023-01-23T05:38:19.551Z,6.30
2023-01-23T05:40:48.669Z,7.47
2023-01-23T05:43:16.758Z,7.17
2023-01-23T05:45:44.537Z,7.23
2023-01-23T05:48:22.057Z,6.70
2023-01-23T05:50:49.533Z,6.77
2023-01-23T05:53:17.101Z,6.80
2023-01-23T05:55:44.659Z,8.10
2023-01-23T05:58:16.102Z,7.03
2023-01-23T06:01:04.156Z,7.03
2023-01-23T06:03:50.410Z,7.07
2023-01-23T06:06:34.160Z,6.57
2023-01-23T06:09:01.738Z,7.30
2023-01-23T06:11:30.375Z,6.33
2023-01-23T06:13:59.215Z,8.07
2023-01-23T06:16:26.793Z,8.30
2023-01-23T06:18:54.480Z,7.60
2023-01-23T06:21:22.037Z,8.30
2023-01-23T06:23:49.489Z,7.60
2023-01-23T06:26:17.981Z,8.23
2023-01-23T06:28:45.445Z,9.10
2023-01-23T06:31:14.346Z,9.53
2023-01-23T06:33:53.292Z,8.13
2023-01-23T06:36:25.698Z,9.30
2023-01-23T06:38:54.036Z,7.97
2023-01-23T06:41:27.194Z,8.47
2023-01-23T06:43:55.301Z,9.70
2023-01-23T06:46:26.425Z,8.60
2023-01-23T06:48:55.054Z,9.20
2023-01-23T06:51:23.358Z,9.07
2023-01-23T06:53:51.467Z,8.47
2023-01-23T06:56:18.985Z,8.63
2023-01-23T06:58:48.712Z,9.40
2023-01-23T07:01:36.121Z,7.70
2023-01-23T07:04:22.368Z,8.40
2023-01-23T07:06:51.778Z,8.00
2023-01-23T07:09:20.546Z,7.27
2023-01-23T07:12:00.286Z,8.63
2023-01-23T07:14:30.969Z,8.50
2023-01-23T07:16:59.968Z,7.63
2023-01-23T07:19:27.843Z,6.90
2023-01-23T07:21:56.859Z,9.57
2023-01-23T07:24:24.328Z,8.00
2023-01-23T07:26:51.844Z,9.23
2023-01-23T07:29:19.434Z,8.90
2023-01-23T07:31:47.118Z,8.83
2023-01-23T07:34:16.235Z,7.87
2023-01-23T07:36:43.711Z,8.57
2023-01-23T07:39:11.270Z,8.73
2023-01-23T07:41:41.381Z,7.77
2023-01-23T07:44:09.117Z,8.00
2023-01-23T07:46:36.592Z,7.43
2023-01-23T07:49:04.078Z,8.20
2023-01-23T07:51:32.851Z,7.97
2023-01-23T07:54:00.315Z,6.80
2023-01-23T07:56:27.792Z,6.50
2023-01-23T07:58:57.439Z,7.83
2023-01-23T08:01:25.111Z,8.40
2023-01-23T08:03:53.612Z,8.67
2023-01-23T08:06:21.664Z,8.90
2023-01-23T08:08:51.280Z,8.40
2023-01-23T08:11:18.713Z,9.90
2023-01-23T08:13:49.889Z,7.00
2023-01-23T08:16:17.626Z,7.53
2023-01-23T08:18:45.416Z,8.47
2023-01-23T08:21:13.031Z,7.17
2023-01-23T08:23:41.288Z,7.40
2023-01-23T08:26:13.545Z,10.00
2023-01-23T08:28:41.183Z,10.47
2023-01-23T08:31:11.185Z,8.23
2023-01-23T08:33:39.765Z,7.47
2023-01-23T08:36:11.180Z,11.90
2023-01-23T08:38:39.090Z,12.37
2023-01-23T08:41:07.365Z,10.70
2023-01-23T08:43:36.213Z,11.27
2023-01-23T08:46:10.879Z,8.13
2023-01-23T08:48:38.734Z,9.10
2023-01-23T08:51:08.734Z,10.20
2023-01-23T08:53:36.661Z,8.93
2023-01-23T08:56:06.396Z,11.43
2023-01-23T08:58:34.065Z,9.17
2023-01-23T09:01:03.216Z,8.07
2023-01-23T09:03:30.713Z,6.93
2023-01-23T09:06:01.561Z,7.60
2023-01-23T09:08:29.053Z,8.23
2023-01-23T09:11:01.212Z,8.63
2023-01-23T09:13:28.742Z,9.60
2023-01-23T09:15:56.405Z,9.60
2023-01-23T09:18:25.779Z,7.77
2023-01-23T09:20:53.653Z,8.80
2023-01-23T09:23:21.831Z,9.70
2023-01-23T09:25:49.622Z,10.17
2023-01-23T09:28:17.122Z,9.13
2023-01-23T09:30:44.721Z,9.67
2023-01-23T09:33:12.439Z,10.10
2023-01-23T09:35:41.343Z,10.20
2023-01-23T09:38:08.859Z,8.53
2023-01-23T09:40:38.288Z,9.13
2023-01-23T09:43:16.221Z,8.63
2023-01-23T09:45:51.109Z,7.87
2023-01-23T09:48:23.621Z,9.73
2023-01-23T09:51:00.693Z,9.53
2023-01-23T09:53:36.437Z,8.63
2023-01-23T09:56:14.376Z,9.50
2023-01-23T09:58:48.455Z,11.20
2023-01-23T10:01:15.951Z,10.00
2023-01-23T10:03:43.525Z,10.73
2023-01-23T10:06:21.818Z,10.93
2023-01-23T10:09:02.902Z,9.13
2023-01-23T10:11:42.876Z,13.97
2023-01-23T10:14:36.848Z,12.60
2023-01-23T10:17:10.514Z,8.60
2023-01-23T10:20:02.830Z,9.23
2023-01-23T10:22:38.153Z,10.40
2023-01-23T10:25:17.423Z,9.27
2023-01-23T10:27:47.648Z,8.87
2023-01-23T10:30:22.359Z,10.50
2023-01-23T10:32:53.227Z,11.67
2023-01-23T10:35:25.842Z,13.80
2023-01-23T10:38:01.507Z,16.30
2023-01-23T10:40:46.915Z,13.90
2023-01-23T10:43:17.056Z,9.30
2023-01-23T10:45:46.411Z,7.60
2023-01-23T10:48:39.207Z,7.30
2023-01-23T10:51:25.849Z,8.03
2023-01-23T10:54:29.521Z,9.67
2023-01-23T10:56:59.428Z,9.20
2023-01-23T10:59:31.179Z,8.47
2023-01-23T11:02:17.857Z,8.30
2023-01-23T11:04:47.201Z,8.90
2023-01-23T11:07:18.070Z,8.37
2023-01-23T11:09:54.065Z,7.70
2023-01-23T11:12:23.957Z,8.70
2023-01-23T11:14:51.877Z,8.17
2023-01-23T11:17:25.721Z,8.17
2023-01-23T11:19:54.715Z,11.07
2023-01-23T11:22:32.006Z,10.53
2023-01-23T11:25:00.953Z,12.80
2023-01-23T11:27:30.989Z,10.70
2023-01-23T11:30:23.009Z,8.37
2023-01-23T11:32:54.947Z,12.00
2023-01-23T11:35:30.387Z,10.63
2023-01-23T11:38:01.019Z,11.10
2023-01-23T11:40:29.820Z,9.50
2023-01-23T11:42:57.337Z,9.37
2023-01-23T11:45:39.680Z,9.17
2023-01-23T11:48:25.127Z,9.17
2023-01-23T11:51:00.242Z,9.53
2023-01-23T11:53:42.376Z,10.30
2023-01-23T11:56:38.141Z,9.40
2023-01-23T11:59:32.476Z,9.10
2023-01-23T12:02:24.484Z,8.57
2023-01-23T12:05:16.546Z,13.93
2023-01-23T12:07:57.669Z,13.13
2023-01-23T12:10:30.326Z,10.63
2023-01-23T12:13:11.508Z,8.80
2023-01-23T12:15:45.895Z,11.17
2023-01-23T12:18:27.957Z,10.33
2023-01-23T12:21:02.679Z,8.03
2023-01-23T12:23:46.255Z,9.80
2023-01-23T12:26:16.067Z,9.30
2023-01-23T12:29:07.194Z,10.03
2023-01-23T12:31:48.733Z,9.70
2023-01-23T12:34:30.426Z,9.93
2023-01-23T12:37:29.047Z,8.60
2023-01-23T12:40:08.561Z,9.43
2023-01-23T12:42:42.170Z,10.23
2023-01-23T12:45:20.196Z,8.17
2023-01-23T12:47:55.007Z,9.30
2023-01-23T12:50:26.462Z,7.90
2023-01-23T12:52:58.915Z,8.97
2023-01-23T12:55:31.530Z,10.40
2023-01-23T12:58:08.565Z,9.47
2023-01-23T13:00:56.261Z,10.70
2023-01-23T13:03:45.672Z,9.70
2023-01-23T13:06:34.694Z,10.37
2023-01-23T13:09:17.727Z,9.60
2023-01-23T13:11:56.179Z,8.53
2023-01-23T13:14:32.827Z,11.90
2023-01-23T13:17:31.117Z,12.93
2023-01-23T13:20:37.799Z,9.10
2023-01-23T13:23:20.921Z,8.90
2023-01-23T13:25:48.560Z,11.20
2023-01-23T13:28:43.984Z,9.83
2023-01-23T13:31:27.260Z,9.77
2023-01-23T13:34:06.557Z,11.07
2023-01-23T13:36:38.453Z,10.20
2023-01-23T13:39:26.427Z,9.90
2023-01-23T13:42:45.690Z,9.90
2023-01-23T13:45:26.925Z,10.07
2023-01-23T14:21:41.882Z,23.27
2023-01-23T14:24:23.277Z,14.80
2023-01-23T14:26:52.470Z,9.43
2023-01-23T14:29:22.023Z,17.93
2023-01-23T14:31:51.974Z,15.43
2023-01-23T14:34:21.260Z,17.17
2023-01-23T14:36:52.169Z,34.57
2023-01-23T14:39:22.620Z,13.50
2023-01-23T14:41:51.794Z,11.93
2023-01-23T14:44:22.615Z,16.83
2023-01-23T14:46:55.195Z,12.10
2023-01-23T14:49:27.640Z,15.60
2023-01-23T14:51:57.962Z,9.33
2023-01-23T14:54:29.607Z,12.23
2023-01-23T14:57:04.281Z,18.00
2023-01-23T14:59:34.767Z,18.50
2023-01-23T15:02:16.328Z,14.87
2023-01-23T15:05:09.988Z,11.17
2023-01-23T15:07:45.412Z,13.00
2023-01-23T15:10:19.040Z,15.70
2023-01-23T15:12:56.609Z,28.20
2023-01-23T15:15:26.791Z,11.07
2023-01-23T15:17:57.283Z,12.80
2023-01-23T15:20:29.909Z,12.40
2023-01-23T15:22:57.661Z,11.10
2023-01-23T15:25:29.901Z,13.73
2023-01-23T15:27:57.572Z,19.80
2023-01-23T15:30:41.347Z,10.77
2023-01-23T15:33:26.049Z,11.53
2023-01-23T15:36:01.838Z,13.30
2023-01-23T15:38:29.990Z,13.03
2023-01-23T15:40:58.067Z,11.30
2023-01-23T15:43:25.744Z,11.20
2023-01-23T15:45:53.948Z,12.30
2023-01-23T15:48:22.877Z,18.30
2023-01-23T15:50:50.442Z,13.70
2023-01-23T15:53:18.481Z,12.53
2023-01-23T15:55:46.458Z,13.00
2023-01-23T15:58:15.189Z,15.63
2023-01-23T16:00:43.264Z,11.30
2023-01-23T16:03:14.476Z,12.47
2023-01-23T16:05:43.657Z,13.53
2023-01-23T16:08:20.805Z,10.33
2023-01-23T16:10:48.436Z,12.17
2023-01-23T16:13:16.077Z,13.07
2023-01-23T16:15:43.830Z,9.83
2023-01-23T16:18:12.750Z,10.30
2023-01-23T16:20:45.063Z,8.57
2023-01-23T16:23:17.076Z,11.10
2023-01-23T16:25:46.334Z,11.00
2023-01-23T16:28:15.291Z,9.90
2023-01-23T16:30:43.288Z,11.80
2023-01-23T16:33:10.830Z,12.00
2023-01-23T16:35:38.794Z,12.00
2023-01-23T16:38:08.246Z,10.53
2023-01-23T16:40:35.886Z,12.27
2023-01-23T16:43:03.609Z,8.73
2023-01-23T16:45:32.593Z,10.60
2023-01-23T16:48:00.696Z,10.27
2023-01-23T16:50:34.105Z,10.97
2023-01-23T16:53:06.696Z,10.20
2023-01-23T16:55:39.999Z,12.60
2023-01-23T16:58:09.056Z,11.30
2023-01-23T17:00:36.909Z,11.73
2023-01-23T17:03:08.927Z,12.43
2023-01-23T17:05:36.566Z,11.30
2023-01-23T17:08:17.206Z,10.60
2023-01-23T17:10:47.896Z,8.90
2023-01-23T17:13:17.621Z,11.23
2023-01-23T17:15:46.279Z,9.30
2023-01-23T17:18:22.816Z,9.60
2023-01-23T17:20:50.861Z,9.50
2023-01-23T17:23:18.340Z,11.60
2023-01-23T17:25:59.789Z,9.57
2023-01-23T17:28:28.239Z,11.97
2023-01-23T17:30:57.843Z,9.23
2023-01-23T17:33:30.338Z,10.33
2023-01-23T17:36:03.541Z,10.93
2023-01-23T17:38:34.872Z,10.37
2023-01-23T17:41:06.528Z,10.80
2023-01-23T17:43:34.043Z,10.50
2023-01-23T17:46:01.564Z,11.43
2023-01-23T17:51:18.865Z,11.17
2023-01-23T17:53:47.315Z,11.83
2023-01-23T17:56:16.580Z,9.50
2023-01-23T17:58:45.327Z,10.70
2023-01-23T18:01:19.082Z,9.53
2023-01-23T18:03:47.040Z,10.57
2023-01-23T18:06:14.516Z,8.87
2023-01-23T18:08:42.661Z,12.90
2023-01-23T18:11:18.875Z,11.97
2023-01-23T18:13:58.471Z,10.40
2023-01-23T18:16:27.802Z,10.97
2023-01-23T18:19:00.379Z,10.17
2023-01-23T18:21:29.252Z,8.50
2023-01-23T18:23:57.327Z,9.90
2023-01-23T18:26:43.538Z,11.23
2023-01-23T18:29:24.923Z,9.70
2023-01-23T18:32:07.522Z,11.23
2023-01-23T18:34:43.886Z,11.10
2023-01-23T18:37:21.581Z,12.27
2023-01-23T18:40:11.153Z,12.17
2023-01-23T18:42:49.110Z,14.57
2023-01-23T18:45:26.522Z,12.40
2023-01-23T18:47:55.499Z,14.33
2023-01-23T18:50:25.206Z,14.17
2023-01-23T18:53:06.084Z,16.00
2023-01-23T18:55:39.611Z,11.93
2023-01-23T18:58:25.103Z,11.37
2023-01-23T19:01:04.246Z,11.00
2023-01-23T19:03:39.639Z,11.67
2023-01-23T19:06:13.194Z,12.73
2023-01-23T19:08:41.384Z,11.20
2023-01-23T19:11:22.079Z,10.33
2023-01-23T19:14:01.900Z,11.43
2023-01-23T19:16:31.948Z,10.33
2023-01-23T19:19:15.262Z,11.53
2023-01-23T19:21:46.805Z,11.50
2023-01-23T19:24:19.024Z,9.77
2023-01-23T19:26:47.486Z,15.03
2023-01-23T19:29:22.486Z,15.70
2023-01-23T19:32:04.089Z,15.40
2023-01-23T19:34:32.974Z,14.60
2023-01-23T19:37:00.535Z,12.80
2023-01-23T19:39:28.090Z,12.13
2023-01-23T19:41:55.724Z,12.03
2023-01-23T19:44:24.833Z,15.43
2023-01-23T19:46:53.142Z,12.87
2023-01-23T19:49:22.004Z,12.50
2023-01-23T19:51:49.694Z,13.47
2023-01-23T19:54:17.557Z,14.23
2023-01-23T19:56:45.228Z,17.17
2023-01-23T19:59:12.873Z,14.73
2023-01-23T20:01:45.395Z,14.50
2023-01-23T20:04:15.892Z,14.70
2023-01-23T20:06:51.288Z,15.77
2023-01-23T20:09:19.352Z,10.97
2023-01-23T20:11:47.968Z,12.20
2023-01-23T20:14:15.693Z,12.90
2023-01-23T20:16:46.720Z,13.40
2023-01-23T20:19:15.747Z,14.50
2023-01-23T20:21:43.640Z,13.57
2023-01-23T20:24:11.316Z,12.63
2023-01-23T20:26:39.884Z,13.30
2023-01-23T20:29:08.911Z,11.73
2023-01-23T20:31:36.693Z,11.80
2023-01-23T20:34:07.023Z,17.27
2023-01-23T20:36:34.666Z,17.90
2023-01-23T20:39:05.785Z,25.70
2023-01-23T20:41:34.359Z,20.53
2023-01-23T20:44:02.024Z,12.70
2023-01-23T20:46:29.694Z,13.50
2023-01-23T20:48:57.935Z,12.90
2023-01-23T20:51:27.506Z,21.07
2023-01-23T20:53:55.081Z,15.47
2023-01-23T20:56:28.017Z,15.10
2023-01-23T20:59:14.804Z,16.20
2023-01-23T21:02:00.955Z,14.40
2023-01-23T21:04:31.651Z,15.60
2023-01-23T21:07:05.410Z,12.03
2023-01-23T21:09:33.074Z,12.53
2023-01-23T21:12:00.671Z,12.40
2023-01-23T21:14:28.807Z,11.30
2023-01-23T21:16:56.380Z,11.07
2023-01-23T21:19:30.507Z,11.77
2023-01-23T21:21:58.517Z,12.43
2023-01-23T21:24:27.458Z,12.10
2023-01-23T21:26:55.445Z,12.43
2023-01-23T21:29:22.937Z,15.73
2023-01-23T21:31:51.486Z,11.23
2023-01-23T21:34:19.248Z,10.10
2023-01-23T21:36:47.103Z,13.47
2023-01-23T21:39:15.703Z,12.40
2023-01-23T21:41:45.025Z,11.67
2023-01-23T21:44:13.258Z,11.30
2023-01-23T21:46:40.935Z,11.80
2023-01-23T21:49:08.702Z,10.60
2023-01-23T21:51:36.255Z,11.50
2023-01-23T21:54:03.991Z,12.80
2023-01-23T21:56:31.804Z,10.47
2023-01-23T21:59:01.247Z,10.17
2023-01-23T22:01:36.075Z,10.50
2023-01-23T22:04:06.071Z,10.23
2023-01-23T22:06:35.375Z,12.00
2023-01-23T22:09:02.931Z,11.37
2023-01-23T22:11:30.807Z,10.73
2023-01-23T22:14:00.325Z,12.03
2023-01-23T22:16:47.074Z,11.33
2023-01-23T22:19:16.141Z,10.70
2023-01-23T22:21:46.093Z,12.20
2023-01-23T22:24:13.726Z,11.20
2023-01-23T22:26:41.580Z,10.77
2023-01-23T22:29:12.030Z,12.53
2023-01-23T22:31:39.662Z,11.30
2023-01-23T22:34:07.391Z,11.20
2023-01-23T22:36:35.104Z,11.70
2023-01-23T22:39:03.006Z,11.17
2023-01-23T22:41:31.562Z,12.60
2023-01-23T22:44:00.037Z,11.20
2023-01-23T22:46:29.613Z,12.43
2023-01-23T22:48:57.241Z,11.90
2023-01-23T22:51:26.426Z,9.10
2023-01-23T22:53:55.012Z,11.47
2023-01-23T22:56:23.249Z,11.60
2023-01-23T22:58:53.060Z,11.30
2023-01-23T23:01:22.941Z,11.40
2023-01-23T23:03:52.389Z,11.67
2023-01-23T23:06:20.398Z,10.23
2023-01-23T23:08:48.726Z,9.33
2023-01-23T23:11:18.160Z,11.03
2023-01-23T23:13:46.490Z,11.70
2023-01-23T23:16:17.779Z,10.13
2023-01-23T23:18:45.798Z,11.20
2023-01-23T23:21:17.087Z,12.07
2023-01-23T23:23:45.550Z,13.00
2023-01-23T23:26:14.262Z,9.57
2023-01-23T23:28:43.833Z,9.57
2023-01-23T23:31:11.662Z,10.50
2023-01-23T23:33:39.192Z,9.57
2023-01-23T23:36:07.691Z,11.03
2023-01-23T23:38:36.667Z,13.20
2023-01-23T23:41:05.937Z,9.60
2023-01-23T23:43:34.315Z,10.60
2023-01-23T23:46:03.770Z,10.40
2023-01-23T23:48:33.263Z,9.50
2023-01-23T23:51:02.024Z,11.27
2023-01-23T23:53:30.352Z,10.97
2023-01-23T23:55:59.547Z,9.13
2023-01-23T23:58:27.186Z,8.40
